Time;durP1;ratioP1;P1;durP2;ratioP2;P2;SDS_P1;SDS_P2;PMS_P1;PMS_P2;Temp;Humidity;BMP_temperature;BMP_pressure;BME280_temperature;BME280_humidity;BME280_pressure;Samples;Min_cycle;Max_cycle;Signal;HPM_P1;HPM_P2
2023/03/20 00:01:49;;;;;;;13.57;7.20;;;8.00;99.90;;;;;;5003798;28;20441;-90
2023/03/20 00:04:15;;;;;;;11.45;6.53;;;7.90;99.90;;;;;;5003009;28;20116;-90
2023/03/20 00:06:43;;;;;;;9.95;6.20;;;7.90;99.90;;;;;;5020802;28;20083;-89
2023/03/20 00:09:10;;;;;;;13.63;7.28;;;7.90;99.90;;;;;;5004939;28;20129;-90
2023/03/20 00:11:47;;;;;;;9.88;5.30;;;7.90;99.90;;;;;;5029302;28;20052;-89
2023/03/20 00:14:14;;;;;;;10.90;5.93;;;7.90;99.90;;;;;;5002498;28;20979;-90
2023/03/20 00:16:43;;;;;;;11.98;5.75;;;7.90;99.90;;;;;;5001831;28;20073;-89
2023/03/20 00:19:24;;;;;;;9.30;5.78;;;7.80;99.90;;;;;;5002635;28;20072;-90
2023/03/20 00:21:52;;;;;;;8.10;5.68;;;7.90;99.90;;;;;;5022791;28;20056;-90
2023/03/20 00:24:18;;;;;;;9.35;5.80;;;7.90;99.90;;;;;;5003536;28;20053;-88
2023/03/20 00:26:45;;;;;;;11.02;6.18;;;7.80;99.90;;;;;;5003367;28;20128;-89
2023/03/20 00:29:29;;;;;;;9.02;5.30;;;7.90;99.90;;;;;;5006830;28;20045;-89
2023/03/20 00:31:56;;;;;;;7.85;5.35;;;7.80;99.90;;;;;;5005393;28;20171;-89
2023/03/20 00:34:25;;;;;;;7.45;5.10;;;7.90;99.90;;;;;;5002489;28;20041;-90
2023/03/20 00:36:52;;;;;;;10.13;5.13;;;7.80;99.90;;;;;;5021780;28;20069;-90
2023/03/20 00:39:18;;;;;;;8.82;5.00;;;7.80;99.90;;;;;;5001695;28;20064;-90
2023/03/20 00:41:59;;;;;;;7.88;5.38;;;7.90;99.90;;;;;;5047167;28;20057;-90
2023/03/20 00:44:52;;;;;;;9.40;5.00;;;7.80;99.90;;;;;;5004887;28;20052;-89
2023/03/20 00:47:23;;;;;;;9.93;5.28;;;7.80;99.90;;;;;;5019253;28;20036;-89
2023/03/20 00:49:51;;;;;;;9.55;5.65;;;7.70;99.90;;;;;;5015660;28;20069;-89
2023/03/20 00:52:21;;;;;;;11.02;5.68;;;7.80;99.90;;;;;;5042234;28;20120;-90
2023/03/20 00:54:47;;;;;;;11.48;5.72;;;7.80;99.90;;;;;;5000169;28;20095;-89
2023/03/20 00:57:26;;;;;;;14.20;5.80;;;7.70;99.90;;;;;;5037016;28;20048;-89
2023/03/20 00:59:51;;;;;;;11.88;5.43;;;7.70;99.90;;;;;;5033401;28;20104;-90
2023/03/20 01:02:25;;;;;;;12.30;6.00;;;7.70;99.90;;;;;;5002530;28;20034;-90
2023/03/20 01:04:51;;;;;;;13.27;5.97;;;7.70;99.90;;;;;;5002262;28;20043;-90
2023/03/20 01:07:17;;;;;;;9.40;6.15;;;7.80;99.90;;;;;;5030069;28;20037;-90
2023/03/20 01:09:43;;;;;;;10.57;5.60;;;7.80;99.90;;;;;;5020772;28;20051;-88
2023/03/20 01:12:11;;;;;;;10.25;5.90;;;7.70;99.90;;;;;;5003104;28;20040;-90
2023/03/20 01:14:37;;;;;;;12.10;5.97;;;7.80;99.90;;;;;;5020184;28;20051;-90
2023/03/20 01:17:03;;;;;;;15.82;6.22;;;7.90;99.90;;;;;;5003079;28;20461;-89
2023/03/20 01:19:31;;;;;;;13.77;5.88;;;7.80;99.90;;;;;;5016115;28;20041;-89
2023/03/20 01:21:57;;;;;;;15.07;6.80;;;7.80;99.90;;;;;;5004958;28;20041;-90
2023/03/20 01:24:22;;;;;;;13.68;6.18;;;7.80;99.90;;;;;;5003216;28;20037;-89
2023/03/20 01:26:50;;;;;;;12.15;6.50;;;7.80;99.90;;;;;;5016206;28;20348;-89
2023/03/20 01:29:24;;;;;;;14.10;6.82;;;7.80;99.90;;;;;;5000416;28;20411;-90
2023/03/20 01:31:51;;;;;;;15.80;7.38;;;7.80;99.90;;;;;;5002233;28;20098;-89
2023/03/20 01:34:17;;;;;;;18.45;7.03;;;7.90;99.90;;;;;;5003265;28;20602;-89
2023/03/20 01:36:55;;;;;;;12.95;6.97;;;7.90;99.90;;;;;;5001944;28;20056;-89
2023/03/20 01:39:27;;;;;;;17.25;8.40;;;7.90;99.90;;;;;;5001893;28;20078;-89
2023/03/20 01:41:56;;;;;;;16.23;8.00;;;7.90;99.90;;;;;;5004216;28;20456;-88
2023/03/20 01:44:30;;;;;;;17.65;7.75;;;7.90;99.90;;;;;;5018087;28;20123;-89
2023/03/20 01:47:00;;;;;;;18.58;8.30;;;7.90;99.90;;;;;;5002858;28;20048;-90
2023/03/20 01:49:27;;;;;;;18.25;8.07;;;7.90;99.90;;;;;;5023780;28;20049;-90
2023/03/20 01:51:57;;;;;;;18.30;8.77;;;7.90;99.90;;;;;;5018022;28;20045;-89
2023/03/20 01:54:25;;;;;;;19.65;9.13;;;8.00;99.90;;;;;;5001298;28;20426;-89
2023/03/20 01:57:12;;;;;;;22.00;8.77;;;7.90;99.90;;;;;;5019562;28;20481;-89
2023/03/20 01:59:41;;;;;;;19.80;9.02;;;7.90;99.90;;;;;;5017780;28;20034;-89
2023/03/20 02:02:08;;;;;;;21.00;9.05;;;7.90;99.90;;;;;;5017061;28;20346;-89
2023/03/20 02:04:42;;;;;;;25.85;9.63;;;8.00;99.90;;;;;;5001061;28;20069;-90
2023/03/20 02:07:09;;;;;;;18.80;8.77;;;8.00;99.90;;;;;;5019122;28;20821;-90
2023/03/20 02:09:36;;;;;;;21.17;9.27;;;8.00;99.90;;;;;;5001607;28;20091;-90
2023/03/20 02:12:02;;;;;;;22.33;9.43;;;8.10;99.90;;;;;;5000241;28;20423;-90
2023/03/20 02:14:30;;;;;;;22.45;9.63;;;8.00;99.90;;;;;;5001377;28;20053;-89
2023/03/20 02:16:56;;;;;;;20.05;8.88;;;8.10;99.90;;;;;;5016346;28;20802;-89
2023/03/20 02:19:50;;;;;;;19.05;8.82;;;8.10;99.90;;;;;;5016844;28;20057;-90
2023/03/20 02:22:28;;;;;;;19.48;9.27;;;8.10;99.90;;;;;;5000754;28;20107;-89
2023/03/20 02:25:14;;;;;;;18.77;8.82;;;8.10;99.90;;;;;;5027583;28;20119;-89
2023/03/20 02:27:47;;;;;;;22.00;9.25;;;8.00;99.90;;;;;;5018046;28;20053;-89
2023/03/20 02:30:42;;;;;;;20.50;9.07;;;8.20;99.90;;;;;;5016555;28;20394;-89
2023/03/20 02:33:14;;;;;;;19.73;8.55;;;8.20;99.90;;;;;;4996799;28;20099;-90
2023/03/20 02:36:02;;;;;;;19.75;9.27;;;8.20;99.90;;;;;;5026318;28;20518;-90
2023/03/20 02:38:30;;;;;;;21.40;8.95;;;8.10;99.90;;;;;;5000005;28;20096;-89
2023/03/20 02:41:14;;;;;;;21.25;8.25;;;8.20;99.90;;;;;;5010576;28;20046;-89
2023/03/20 02:44:17;;;;;;;17.45;8.25;;;8.10;99.90;;;;;;5026727;28;20045;-89
2023/03/20 02:46:58;;;;;;;21.13;8.27;;;8.20;99.90;;;;;;4963987;28;20057;-89
2023/03/20 02:49:38;;;;;;;19.67;8.20;;;8.10;99.90;;;;;;5024062;28;20037;-89
2023/03/20 02:52:16;;;;;;;18.92;8.57;;;8.20;99.90;;;;;;5050019;28;20049;-90
2023/03/20 02:55:08;;;;;;;22.77;9.95;;;8.20;99.90;;;;;;5049201;28;20106;-89
2023/03/20 02:57:47;;;;;;;17.45;9.13;;;8.20;99.90;;;;;;5003414;28;20059;-90
2023/03/20 03:00:27;;;;;;;19.33;10.05;;;8.10;99.90;;;;;;5026950;28;20076;-90
2023/03/20 03:03:01;;;;;;;20.70;10.32;;;8.20;99.90;;;;;;5021517;28;20124;-89
2023/03/20 03:05:37;;;;;;;19.70;11.02;;;8.10;99.90;;;;;;5022085;28;20039;-89
2023/03/20 03:08:05;;;;;;;18.45;9.93;;;8.10;99.90;;;;;;5022619;28;20049;-90
2023/03/20 03:10:36;;;;;;;23.02;10.57;;;8.10;99.90;;;;;;5004194;28;20059;-90
2023/03/20 03:13:05;;;;;;;17.75;10.50;;;8.20;99.90;;;;;;5018106;28;20039;-89
2023/03/20 03:15:38;;;;;;;20.42;10.45;;;8.20;99.90;;;;;;5005783;28;20044;-89
2023/03/20 03:18:06;;;;;;;22.17;11.13;;;8.20;99.90;;;;;;5033388;28;20037;-89
2023/03/20 03:20:36;;;;;;;21.80;10.77;;;8.10;99.90;;;;;;5004341;28;20052;-90
2023/03/20 03:23:02;;;;;;;19.80;10.95;;;8.20;99.90;;;;;;5008014;28;20041;-90
2023/03/20 03:25:36;;;;;;;22.83;11.07;;;8.20;99.90;;;;;;5001774;28;20895;-89
2023/03/20 03:28:37;;;;;;;21.77;11.25;;;8.10;99.90;;;;;;5005643;28;20045;-89
2023/03/20 03:31:14;;;;;;;22.73;10.50;;;8.10;99.90;;;;;;4977123;28;20152;-89
2023/03/20 03:33:44;;;;;;;19.13;10.82;;;8.20;99.90;;;;;;4998208;28;20171;-90
2023/03/20 03:36:31;;;;;;;23.85;12.07;;;8.10;99.90;;;;;;5029520;28;20050;-90
2023/03/20 03:39:03;;;;;;;23.88;11.25;;;8.20;99.90;;;;;;5019840;28;20555;-90
2023/03/20 03:41:37;;;;;;;19.00;10.30;;;8.20;99.90;;;;;;5043320;28;20061;-90
2023/03/20 03:44:12;;;;;;;22.50;11.32;;;8.10;99.90;;;;;;5021058;28;20060;-90
2023/03/20 03:46:43;;;;;;;20.88;10.90;;;8.20;99.90;;;;;;5005093;28;20057;-89
2023/03/20 03:49:15;;;;;;;16.45;10.45;;;8.10;99.90;;;;;;5003672;28;20049;-89
2023/03/20 03:51:45;;;;;;;17.92;10.65;;;8.10;99.90;;;;;;4999069;28;20038;-89
2023/03/20 03:54:21;;;;;;;23.25;10.80;;;8.10;99.90;;;;;;5018842;28;20037;-90
2023/03/20 03:56:49;;;;;;;20.45;10.95;;;8.10;99.90;;;;;;5016988;28;20041;-90
2023/03/20 03:59:31;;;;;;;20.15;9.93;;;8.10;99.90;;;;;;5002247;28;20038;-90
2023/03/20 04:02:00;;;;;;;22.08;11.50;;;8.10;99.90;;;;;;5021021;28;20410;-90
2023/03/20 04:04:26;;;;;;;18.55;10.73;;;8.10;99.90;;;;;;5020411;28;20452;-89
2023/03/20 04:06:52;;;;;;;23.67;10.98;;;8.10;99.90;;;;;;5021958;28;20777;-89
2023/03/20 04:09:18;;;;;;;16.20;10.02;;;8.10;99.90;;;;;;5032949;28;20083;-90
2023/03/20 04:11:49;;;;;;;19.63;10.15;;;8.10;99.90;;;;;;5001467;28;20042;-90
2023/03/20 04:14:15;;;;;;;17.33;10.07;;;8.10;99.90;;;;;;5017810;28;20465;-89
2023/03/20 04:16:41;;;;;;;24.00;10.27;;;8.00;99.90;;;;;;5004995;28;20088;-89
2023/03/20 04:19:06;;;;;;;19.85;9.95;;;8.00;99.90;;;;;;5017732;28;20049;-90
2023/03/20 04:21:32;;;;;;;16.85;9.70;;;8.00;99.90;;;;;;5006108;28;20089;-89
2023/03/20 04:23:58;;;;;;;17.27;9.30;;;8.10;99.90;;;;;;5019031;28;20064;-89
2023/03/20 04:26:23;;;;;;;18.48;9.60;;;8.00;99.90;;;;;;5041945;28;20098;-90
2023/03/20 04:28:52;;;;;;;17.02;10.07;;;8.00;99.90;;;;;;5000641;28;20304;-90
2023/03/20 04:31:18;;;;;;;17.40;9.75;;;8.10;99.90;;;;;;5002366;28;20045;-90
2023/03/20 04:33:44;;;;;;;16.58;10.10;;;8.00;99.90;;;;;;5005185;28;20040;-89
2023/03/20 04:36:11;;;;;;;17.05;9.60;;;8.00;99.90;;;;;;5003104;28;20447;-90
2023/03/20 04:38:37;;;;;;;18.77;9.82;;;7.90;99.90;;;;;;5003528;28;20044;-90
2023/03/20 04:41:03;;;;;;;16.52;9.82;;;8.00;99.90;;;;;;5016363;28;20045;-89
2023/03/20 04:43:31;;;;;;;16.27;9.43;;;8.00;99.90;;;;;;5020302;28;20558;-89
2023/03/20 04:45:57;;;;;;;21.48;9.68;;;7.90;99.90;;;;;;5019114;28;20106;-90
2023/03/20 04:48:23;;;;;;;16.35;9.75;;;8.00;99.90;;;;;;5000833;28;20049;-89
2023/03/20 04:50:51;;;;;;;19.35;9.95;;;7.90;99.90;;;;;;5017718;28;20044;-90
2023/03/20 04:53:17;;;;;;;16.55;9.57;;;8.00;99.90;;;;;;5002906;28;20033;-89
2023/03/20 04:55:44;;;;;;;14.43;8.90;;;7.90;99.90;;;;;;5002727;28;20227;-90
2023/03/20 04:58:11;;;;;;;17.33;8.82;;;8.00;99.90;;;;;;5020354;28;20098;-89
2023/03/20 05:00:37;;;;;;;16.02;8.60;;;7.90;99.90;;;;;;5005225;28;20299;-90
2023/03/20 05:03:03;;;;;;;14.65;8.75;;;7.90;99.90;;;;;;5003820;28;20049;-89
2023/03/20 05:05:28;;;;;;;15.40;8.07;;;7.90;99.90;;;;;;5018795;28;20502;-90
2023/03/20 05:07:54;;;;;;;15.38;8.40;;;7.90;99.90;;;;;;5003270;28;20433;-89
2023/03/20 05:10:19;;;;;;;14.57;8.43;;;7.90;99.90;;;;;;5005185;28;20049;-90
2023/03/20 05:12:46;;;;;;;14.18;7.95;;;7.80;99.90;;;;;;5001941;28;20037;-90
2023/03/20 05:15:12;;;;;;;11.93;8.02;;;7.90;99.90;;;;;;5002564;28;20120;-89
2023/03/20 05:17:41;;;;;;;17.98;7.97;;;7.90;99.90;;;;;;5002144;28;20057;-90
2023/03/20 05:20:07;;;;;;;17.73;8.75;;;7.90;99.90;;;;;;5001948;28;20141;-89
2023/03/20 05:22:33;;;;;;;14.95;7.50;;;7.80;99.90;;;;;;5002862;28;20041;-89
2023/03/20 05:25:00;;;;;;;13.38;7.63;;;7.90;99.90;;;;;;4999934;28;20049;-89
2023/03/20 05:27:25;;;;;;;19.02;8.13;;;7.80;99.90;;;;;;5016579;28;20049;-89
2023/03/20 05:29:51;;;;;;;14.05;8.13;;;7.90;99.90;;;;;;5001160;28;20046;-89
2023/03/20 05:32:20;;;;;;;15.68;8.57;;;7.90;99.90;;;;;;5017593;28;20041;-89
2023/03/20 05:34:46;;;;;;;13.35;8.13;;;7.90;99.90;;;;;;5026513;28;20456;-90
2023/03/20 05:37:12;;;;;;;13.43;7.85;;;7.90;99.90;;;;;;5003431;28;20146;-90
2023/03/20 05:39:37;;;;;;;16.13;7.60;;;7.80;99.90;;;;;;5002421;28;20048;-90
2023/03/20 05:42:03;;;;;;;15.38;8.23;;;7.90;99.90;;;;;;5012891;28;20033;-90
2023/03/20 05:44:29;;;;;;;14.48;9.20;;;7.90;99.90;;;;;;5043107;28;20038;-90
2023/03/20 05:46:55;;;;;;;17.55;9.18;;;7.80;99.90;;;;;;5016940;28;20152;-89
2023/03/20 05:49:23;;;;;;;14.93;8.48;;;7.80;99.90;;;;;;5024982;28;20250;-89
2023/03/20 05:51:49;;;;;;;15.80;9.25;;;7.80;99.90;;;;;;5017607;28;20446;-89
2023/03/20 05:54:15;;;;;;;16.10;8.52;;;7.80;99.90;;;;;;5015730;28;20398;-89
2023/03/20 05:56:41;;;;;;;18.52;8.15;;;7.80;99.90;;;;;;5006761;28;20939;-89
2023/03/20 05:59:06;;;;;;;15.23;8.98;;;7.80;99.90;;;;;;5014295;28;20064;-90
2023/03/20 06:01:32;;;;;;;15.30;9.20;;;7.80;99.90;;;;;;5003279;28;20048;-90
2023/03/20 06:03:57;;;;;;;15.82;8.90;;;7.80;99.90;;;;;;5001243;28;20164;-90
2023/03/20 06:06:23;;;;;;;14.60;9.13;;;7.80;99.90;;;;;;5015375;28;20053;-89
2023/03/20 06:08:49;;;;;;;20.17;10.55;;;7.80;99.90;;;;;;5000260;28;20530;-89
2023/03/20 06:11:15;;;;;;;16.08;10.18;;;7.80;99.90;;;;;;5002572;28;20034;-90
2023/03/20 06:13:41;;;;;;;18.48;10.75;;;7.80;99.90;;;;;;5042915;28;20566;-89
2023/03/20 06:16:07;;;;;;;18.27;11.00;;;7.90;99.90;;;;;;5002762;28;20452;-89
2023/03/20 06:18:33;;;;;;;17.55;10.57;;;7.90;99.90;;;;;;5016452;28;20037;-89
2023/03/20 06:20:58;;;;;;;16.70;10.30;;;7.90;99.90;;;;;;5002064;28;20037;-89
2023/03/20 06:23:24;;;;;;;17.85;10.02;;;7.90;99.90;;;;;;5003202;28;20659;-90
2023/03/20 06:25:50;;;;;;;17.75;10.82;;;7.90;99.90;;;;;;5008023;28;20048;-89
2023/03/20 06:28:16;;;;;;;17.27;11.13;;;7.90;99.90;;;;;;5005488;28;20246;-89
2023/03/20 06:30:43;;;;;;;20.40;11.45;;;8.00;99.90;;;;;;5021882;28;20052;-89
2023/03/20 06:33:09;;;;;;;21.02;11.23;;;8.00;99.90;;;;;;5020770;28;20045;-89
2023/03/20 06:35:35;;;;;;;18.30;11.88;;;8.00;99.90;;;;;;5021469;28;20652;-90
2023/03/20 06:38:01;;;;;;;19.38;11.15;;;8.00;99.90;;;;;;5005609;28;20037;-90
2023/03/20 06:40:27;;;;;;;16.83;10.88;;;8.10;99.90;;;;;;5006202;28;20029;-90
2023/03/20 06:42:53;;;;;;;17.67;10.40;;;8.10;99.90;;;;;;5005565;28;20282;-90
2023/03/20 06:45:20;;;;;;;18.30;10.77;;;8.10;99.90;;;;;;5019877;28;20037;-90
2023/03/20 06:47:46;;;;;;;19.92;10.93;;;8.10;99.90;;;;;;5034662;28;20048;-89
2023/03/20 06:50:12;;;;;;;16.40;10.98;;;8.10;99.90;;;;;;5040842;28;20034;-89
2023/03/20 06:52:38;;;;;;;18.42;10.70;;;8.10;99.90;;;;;;5002605;28;22086;-90
2023/03/20 06:55:05;;;;;;;20.10;10.18;;;8.10;99.90;;;;;;5003967;28;20522;-90
2023/03/20 06:57:31;;;;;;;17.65;10.82;;;8.20;99.90;;;;;;5026832;28;20291;-90
2023/03/20 06:59:57;;;;;;;17.20;10.52;;;8.20;99.90;;;;;;5022380;28;20153;-89
2023/03/20 07:02:24;;;;;;;18.55;10.73;;;8.20;99.90;;;;;;5019422;28;20069;-90
2023/03/20 07:04:51;;;;;;;17.30;10.98;;;8.20;99.90;;;;;;5002918;28;20064;-89
2023/03/20 07:07:17;;;;;;;17.70;10.90;;;8.30;99.90;;;;;;5021067;28;20376;-89
2023/03/20 07:09:44;;;;;;;16.95;10.15;;;8.30;99.90;;;;;;5004439;28;20260;-90
2023/03/20 07:12:15;;;;;;;21.38;10.30;;;8.30;99.90;;;;;;5005072;28;20038;-90
2023/03/20 07:14:41;;;;;;;18.02;10.13;;;8.30;99.90;;;;;;5010229;28;20494;-91
2023/03/20 07:17:11;;;;;;;16.73;10.02;;;8.30;99.90;;;;;;5045793;28;20561;-90
2023/03/20 07:19:37;;;;;;;17.23;10.20;;;8.40;99.90;;;;;;5021561;28;20037;-89
2023/03/20 07:22:06;;;;;;;18.90;10.45;;;8.40;99.90;;;;;;5021248;28;20033;-90
2023/03/20 07:24:36;;;;;;;16.80;10.65;;;8.50;99.90;;;;;;5005239;28;20149;-90
2023/03/20 07:27:01;;;;;;;19.55;11.20;;;8.50;99.90;;;;;;5018662;28;20037;-90
2023/03/20 07:29:27;;;;;;;16.45;11.18;;;8.50;99.90;;;;;;5018731;28;20044;-90
2023/03/20 07:31:53;;;;;;;16.00;10.60;;;8.60;99.90;;;;;;5001549;28;20037;-89
2023/03/20 07:34:18;;;;;;;21.02;10.40;;;8.70;99.90;;;;;;5017718;28;20087;-90
2023/03/20 07:36:44;;;;;;;19.40;10.30;;;8.70;99.90;;;;;;5020828;28;20511;-90
2023/03/20 07:39:12;;;;;;;16.92;10.25;;;8.70;99.90;;;;;;5004175;28;20060;-90
2023/03/20 07:41:41;;;;;;;19.80;10.52;;;8.80;99.90;;;;;;5004429;28;20042;-90
2023/03/20 07:44:07;;;;;;;18.10;11.15;;;9.00;99.90;;;;;;5047424;28;20038;-89
2023/03/20 07:46:33;;;;;;;18.27;10.90;;;9.00;99.90;;;;;;5001897;28;20054;-90
2023/03/20 07:48:58;;;;;;;18.17;10.55;;;9.00;99.90;;;;;;5005790;28;20103;-90
2023/03/20 07:51:24;;;;;;;18.02;11.30;;;9.00;99.90;;;;;;5022992;28;20112;-89
2023/03/20 07:53:50;;;;;;;20.05;10.60;;;9.00;99.90;;;;;;5002238;28;20041;-89
2023/03/20 07:56:16;;;;;;;17.52;11.07;;;9.00;99.90;;;;;;5024643;28;20038;-89
2023/03/20 07:58:45;;;;;;;19.23;10.43;;;9.00;99.90;;;;;;5019550;28;20084;-89
2023/03/20 08:01:10;;;;;;;27.80;11.88;;;9.00;99.90;;;;;;5003718;28;20091;-89
2023/03/20 08:03:37;;;;;;;19.33;11.75;;;9.00;99.90;;;;;;5002523;28;20041;-89
2023/03/20 08:06:05;;;;;;;17.10;10.50;;;9.20;99.90;;;;;;5003130;28;20053;-90
2023/03/20 08:08:31;;;;;;;19.75;11.43;;;9.20;99.90;;;;;;5004290;28;20508;-90
2023/03/20 08:10:56;;;;;;;17.38;10.25;;;9.10;99.90;;;;;;5019391;28;20041;-90
2023/03/20 08:13:22;;;;;;;17.40;10.98;;;9.10;99.90;;;;;;5006724;28;20123;-89
2023/03/20 08:15:48;;;;;;;17.88;10.93;;;9.20;99.90;;;;;;5020307;28;20110;-90
2023/03/20 08:18:14;;;;;;;20.10;10.85;;;9.40;99.90;;;;;;5019381;28;20093;-90
2023/03/20 08:20:40;;;;;;;18.65;10.38;;;9.50;99.90;;;;;;5001610;28;20033;-89
2023/03/20 08:23:06;;;;;;;19.67;11.05;;;9.50;99.90;;;;;;5019973;28;20071;-89
2023/03/20 08:25:33;;;;;;;23.65;11.07;;;9.50;99.90;;;;;;5004353;28;20067;-89
2023/03/20 08:28:02;;;;;;;18.30;11.05;;;9.50;99.90;;;;;;5002815;28;20482;-89
2023/03/20 08:30:28;;;;;;;18.30;11.25;;;9.60;99.90;;;;;;5004894;28;20506;-89
2023/03/20 08:32:53;;;;;;;20.52;11.23;;;9.70;99.90;;;;;;5001423;28;20047;-89
2023/03/20 08:35:20;;;;;;;20.55;11.00;;;9.70;99.90;;;;;;5018131;28;20073;-90
2023/03/20 08:37:45;;;;;;;19.45;10.65;;;9.70;99.90;;;;;;5003541;28;20560;-90
2023/03/20 08:40:11;;;;;;;15.52;10.73;;;9.60;99.90;;;;;;5045756;28;20029;-89
2023/03/20 08:42:37;;;;;;;19.92;11.23;;;9.70;99.90;;;;;;5001451;28;20136;-90
2023/03/20 08:45:03;;;;;;;18.98;10.70;;;9.70;99.90;;;;;;5002166;28;20121;-90
2023/03/20 08:47:30;;;;;;;15.82;10.05;;;9.70;99.90;;;;;;5017064;28;20075;-89
2023/03/20 08:49:56;;;;;;;20.85;11.00;;;9.80;99.90;;;;;;5001770;28;20068;-89
2023/03/20 08:52:22;;;;;;;18.05;10.57;;;9.90;99.90;;;;;;5004010;28;20107;-89
2023/03/20 08:54:48;;;;;;;20.13;10.52;;;9.90;99.90;;;;;;5002875;28;20037;-90
2023/03/20 08:57:14;;;;;;;17.23;10.15;;;10.00;99.90;;;;;;5019628;28;20033;-89
2023/03/20 08:59:40;;;;;;;20.33;10.48;;;10.00;99.90;;;;;;5000416;28;20049;-89
2023/03/20 09:02:05;;;;;;;19.77;10.48;;;10.10;99.90;;;;;;5017576;28;20071;-90
2023/03/20 09:04:31;;;;;;;19.50;9.80;;;10.20;99.90;;;;;;5002293;28;20041;-89
2023/03/20 09:07:01;;;;;;;19.55;10.93;;;10.00;99.90;;;;;;5003736;28;20051;-89
2023/03/20 09:09:28;;;;;;;21.25;11.07;;;10.10;99.90;;;;;;5017522;28;20057;-90
2023/03/20 09:11:59;;;;;;;15.88;9.80;;;10.20;99.90;;;;;;5019076;28;20188;-89
2023/03/20 09:14:26;;;;;;;19.55;10.75;;;10.30;99.90;;;;;;5017167;28;20055;-89
2023/03/20 09:16:53;;;;;;;17.88;10.32;;;10.40;99.90;;;;;;5002721;28;20283;-90
2023/03/20 09:19:19;;;;;;;17.35;10.77;;;10.50;99.90;;;;;;5042120;28;20262;-89
2023/03/20 09:21:45;;;;;;;16.48;10.27;;;10.70;99.90;;;;;;5018548;28;20868;-90
2023/03/20 09:24:11;;;;;;;19.02;11.13;;;10.60;99.90;;;;;;5001272;28;20333;-88
2023/03/20 09:26:38;;;;;;;18.42;11.15;;;10.90;99.90;;;;;;5004143;28;20120;-90
2023/03/20 09:29:04;;;;;;;16.88;10.43;;;11.20;99.90;;;;;;5004195;28;20042;-89
2023/03/20 09:31:30;;;;;;;17.27;10.10;;;11.50;99.90;;;;;;5000509;28;20063;-90
2023/03/20 09:33:56;;;;;;;17.00;10.20;;;11.40;99.90;;;;;;5019008;28;20033;-90
2023/03/20 09:36:21;;;;;;;12.85;9.00;;;11.40;99.90;;;;;;5016920;28;20514;-90
2023/03/20 09:38:47;;;;;;;15.77;9.05;;;11.50;99.90;;;;;;5016889;28;20437;-89
2023/03/20 09:41:21;;;;;;;14.88;9.52;;;11.30;99.90;;;;;;5002222;28;20221;-89
2023/03/20 09:44:20;;;;;;;17.13;9.75;;;11.40;99.90;;;;;;5029469;28;20087;-89
2023/03/20 09:47:20;;;;;;;11.18;8.25;;;11.20;99.90;;;;;;5029598;28;20139;-90
2023/03/20 09:50:22;;;;;;;16.08;8.88;;;11.10;99.90;;;;;;5001288;28;20102;-90
2023/03/20 09:52:53;;;;;;;17.98;8.35;;;11.20;99.90;;;;;;4998907;28;20285;-90
2023/03/20 09:55:24;;;;;;;12.65;8.10;;;11.20;99.90;;;;;;5028949;28;20045;-89
2023/03/20 09:57:55;;;;;;;14.32;8.10;;;11.20;99.90;;;;;;5020117;28;20776;-89
2023/03/20 10:00:26;;;;;;;14.98;8.07;;;11.00;99.90;;;;;;5015886;28;20030;-89
2023/03/20 10:03:01;;;;;;;13.45;7.68;;;10.90;99.90;;;;;;5024227;28;20132;-90
2023/03/20 10:05:40;;;;;;;14.98;7.93;;;10.90;99.90;;;;;;5001344;28;20138;-89
2023/03/20 10:08:12;;;;;;;13.73;8.20;;;11.10;99.90;;;;;;4998255;28;20075;-90
2023/03/20 10:11:06;;;;;;;14.45;7.95;;;11.00;99.90;;;;;;5004772;28;20640;-89
2023/03/20 10:13:59;;;;;;;13.52;8.02;;;11.00;99.90;;;;;;5020304;28;20449;-88
2023/03/20 10:16:51;;;;;;;16.42;8.82;;;11.00;99.90;;;;;;4999597;28;20372;-89
2023/03/20 10:19:19;;;;;;;15.85;8.93;;;11.20;99.90;;;;;;5016192;28;20045;-88
2023/03/20 10:21:48;;;;;;;16.88;8.65;;;11.30;99.90;;;;;;5001692;28;20034;-89
2023/03/20 10:24:39;;;;;;;15.98;9.77;;;11.50;99.90;;;;;;5016203;28;20479;-90
2023/03/20 10:27:16;;;;;;;16.48;9.85;;;11.30;99.90;;;;;;4992038;28;20938;-89
2023/03/20 10:30:04;;;;;;;16.85;9.88;;;11.20;99.90;;;;;;5017533;28;20115;-89
2023/03/20 10:32:54;;;;;;;13.93;9.52;;;11.20;99.90;;;;;;5015506;28;20080;-89
2023/03/20 10:35:26;;;;;;;15.20;10.10;;;11.10;99.90;;;;;;5015019;28;20045;-89
2023/03/20 10:37:51;;;;;;;16.05;10.45;;;11.10;99.90;;;;;;5002083;28;20048;-89
2023/03/20 10:40:31;;;;;;;16.70;9.15;;;10.90;99.90;;;;;;5003402;28;20041;-89
2023/03/20 10:43:01;;;;;;;17.45;9.98;;;10.70;99.90;;;;;;5041845;28;20073;-89
2023/03/20 10:45:40;;;;;;;14.07;10.32;;;10.70;99.90;;;;;;5000067;28;20036;-89
2023/03/20 10:48:20;;;;;;;15.23;10.07;;;10.90;99.90;;;;;;5015868;28;20037;-89
2023/03/20 10:50:50;;;;;;;16.90;10.18;;;11.00;99.90;;;;;;5021938;28;20037;-89
2023/03/20 10:53:31;;;;;;;17.27;10.27;;;11.00;99.90;;;;;;5016435;28;20041;-89
2023/03/20 10:56:04;;;;;;;20.15;10.98;;;11.10;99.90;;;;;;5003837;28;20048;-90
2023/03/20 10:58:34;;;;;;;16.05;10.20;;;11.40;99.90;;;;;;5017480;28;20471;-88
2023/03/20 11:00:59;;;;;;;16.65;9.45;;;11.40;99.90;;;;;;5013712;28;20367;-89
2023/03/20 11:03:29;;;;;;;17.48;8.60;;;11.40;99.90;;;;;;5043383;28;20041;-89
2023/03/20 11:05:58;;;;;;;16.67;8.93;;;11.20;99.90;;;;;;5001678;28;20044;-89
2023/03/20 11:08:29;;;;;;;13.88;8.98;;;11.50;99.90;;;;;;4998554;28;20394;-89
2023/03/20 11:11:03;;;;;;;12.93;8.68;;;11.40;99.90;;;;;;5043848;28;20041;-89
2023/03/20 11:13:39;;;;;;;14.15;8.52;;;11.50;99.90;;;;;;5004812;28;20034;-89
2023/03/20 11:16:15;;;;;;;12.60;6.50;;;11.40;99.90;;;;;;5005988;28;20103;-89
2023/03/20 11:18:44;;;;;;;16.05;7.40;;;11.10;99.90;;;;;;5005129;28;20061;-89
2023/03/20 11:21:17;;;;;;;11.05;5.82;;;11.00;99.90;;;;;;5008386;28;20138;-90
2023/03/20 11:23:43;;;;;;;9.20;4.95;;;10.80;99.90;;;;;;5052482;28;20041;-89
2023/03/20 11:26:36;;;;;;;9.77;5.82;;;10.50;99.90;;;;;;5004404;28;20068;-89
2023/03/20 11:29:06;;;;;;;13.63;6.60;;;10.60;99.90;;;;;;5036658;28;20112;-89
2023/03/20 11:31:39;;;;;;;9.88;5.70;;;10.70;99.90;;;;;;5036888;28;20049;-89
2023/03/20 11:34:13;;;;;;;10.15;5.63;;;10.80;99.90;;;;;;5002629;28;20433;-89
2023/03/20 11:36:40;;;;;;;9.82;5.50;;;10.70;99.90;;;;;;5003641;28;20053;-89
2023/03/20 11:39:26;;;;;;;11.43;5.78;;;10.50;99.90;;;;;;5021803;28;20553;-89
2023/03/20 11:41:56;;;;;;;12.75;5.82;;;10.50;99.90;;;;;;5005775;28;20029;-89
2023/03/20 11:44:36;;;;;;;13.23;5.57;;;10.50;99.90;;;;;;5005361;28;20140;-90
2023/03/20 11:47:16;;;;;;;13.55;5.78;;;10.50;99.90;;;;;;5022133;28;20041;-89
2023/03/20 11:49:51;;;;;;;11.05;5.45;;;10.40;99.90;;;;;;5004875;28;20041;-89
2023/03/20 11:52:23;;;;;;;10.50;5.70;;;10.30;99.90;;;;;;5005736;28;20038;-89
2023/03/20 11:54:53;;;;;;;11.02;5.13;;;10.30;99.90;;;;;;5005313;28;20064;-89
2023/03/20 11:57:35;;;;;;;8.70;4.75;;;10.30;99.90;;;;;;5002574;28;20021;-90
2023/03/20 12:00:09;;;;;;;11.25;5.28;;;10.40;99.90;;;;;;5032553;28;20372;-89
2023/03/20 12:02:36;;;;;;;10.50;4.72;;;10.30;99.90;;;;;;5018248;28;20037;-90
2023/03/20 12:05:18;;;;;;;10.35;4.50;;;10.20;99.90;;;;;;5001158;28;20315;-89
2023/03/20 12:07:50;;;;;;;8.63;4.75;;;10.20;99.90;;;;;;5004705;28;20078;-90
2023/03/20 12:10:18;;;;;;;8.50;4.40;;;10.20;99.90;;;;;;5032421;28;20040;-89
2023/03/20 12:13:05;;;;;;;11.40;5.60;;;10.20;99.90;;;;;;5035244;28;20517;-90
2023/03/20 12:15:42;;;;;;;12.02;4.05;;;10.20;99.90;;;;;;5000715;28;20045;-89
2023/03/20 12:18:24;;;;;;;9.82;4.38;;;10.10;99.90;;;;;;5020301;28;20034;-89
2023/03/20 12:21:15;;;;;;;7.10;3.95;;;10.00;99.90;;;;;;5000768;28;20046;-89
2023/03/20 12:23:55;;;;;;;9.63;4.63;;;10.20;99.90;;;;;;5021849;28;20045;-89
2023/03/20 12:26:50;;;;;;;8.73;4.10;;;10.40;99.90;;;;;;5020989;28;20037;-89
2023/03/20 12:29:34;;;;;;;8.30;4.13;;;10.30;99.90;;;;;;5005435;28;20038;-89
2023/03/20 12:32:24;;;;;;;11.23;4.68;;;10.00;99.90;;;;;;5020493;28;20175;-89
2023/03/20 12:34:57;;;;;;;11.05;4.30;;;10.20;99.90;;;;;;5029068;28;20207;-89
2023/03/20 12:37:23;;;;;;;7.32;4.65;;;10.40;99.90;;;;;;5018376;28;20029;-90
2023/03/20 12:39:58;;;;;;;9.77;4.65;;;10.50;99.90;;;;;;5001338;28;20543;-89
2023/03/20 12:42:40;;;;;;;10.35;3.90;;;10.50;99.90;;;;;;5004221;28;20073;-89
2023/03/20 12:45:21;;;;;;;8.30;3.47;;;10.40;99.90;;;;;;5002352;28;20048;-89
2023/03/20 12:48:45;;;;;;;11.10;3.83;;;10.20;99.90;;;;;;5005711;28;20515;-89
2023/03/20 12:51:39;;;;;;;8.23;3.53;;;10.20;99.90;;;;;;4906245;29;20460;-89
2023/03/20 12:54:26;;;;;;;8.15;3.50;;;10.20;99.90;;;;;;4898731;28;20237;-89
2023/03/20 12:56:57;;;;;;;8.20;3.60;;;10.10;99.90;;;;;;5014235;28;20034;-89
2023/03/20 12:59:49;;;;;;;6.53;3.40;;;10.20;99.90;;;;;;5004369;28;20045;-89
2023/03/20 13:02:22;;;;;;;8.27;4.00;;;10.00;99.90;;;;;;5002140;28;20073;-89